Time;durP1;ratioP1;P1;durP2;ratioP2;P2;SDS_P1;SDS_P2;PMS_P1;PMS_P2;Temp;Humidity;BMP_temperature;BMP_pressure;BME280_temperature;BME280_humidity;BME280_pressure;Samples;Min_cycle;Max_cycle;Signal;HPM_P1;HPM_P2
2023/01/12 00:02:25;;;;;;;24.37;16.23;;;4.50;99.90;;;4.19;81.80;100107.19;5133340;28;20216;-67
2023/01/12 00:04:55;;;;;;;26.27;15.53;;;4.40;99.90;;;4.21;82.36;100109.78;5124945;28;20287;-68
2023/01/12 00:07:23;;;;;;;29.00;17.10;;;4.40;99.90;;;4.22;82.12;100119.13;5135630;28;20225;-68
2023/01/12 00:09:52;;;;;;;23.93;15.73;;;4.40;99.90;;;4.19;82.59;100109.75;5132233;28;20338;-67
2023/01/12 00:12:20;;;;;;;25.60;15.57;;;4.40;99.90;;;4.16;82.58;100102.06;5132865;28;20211;-67
2023/01/12 00:14:49;;;;;;;26.83;16.53;;;4.40;99.90;;;4.15;82.53;100100.34;5131151;28;20218;-66
2023/01/12 00:17:18;;;;;;;25.93;16.33;;;4.40;99.90;;;4.15;83.17;100110.53;5133302;28;20228;-68
2023/01/12 00:19:46;;;;;;;26.07;15.80;;;4.40;99.90;;;4.14;82.78;100113.91;5131842;28;20210;-69
2023/01/12 00:22:17;;;;;;;25.77;16.87;;;4.40;99.90;;;4.15;82.95;100115.63;5127377;28;20188;-67
2023/01/12 00:24:48;;;;;;;28.13;17.43;;;4.40;99.90;;;4.15;83.65;100115.63;5132833;28;20207;-67
2023/01/12 00:27:20;;;;;;;27.33;16.87;;;4.40;99.90;;;4.17;83.50;100113.13;5132766;28;20223;-68
2023/01/12 00:29:48;;;;;;;24.57;15.37;;;4.40;99.90;;;4.16;83.62;100112.28;5131315;28;20433;-68
2023/01/12 00:32:20;;;;;;;28.37;16.27;;;4.40;99.90;;;4.20;83.55;100118.25;5133413;28;20211;-67
2023/01/12 00:34:49;;;;;;;24.50;15.90;;;4.40;99.90;;;4.19;83.85;100108.88;5133283;28;20192;-68
2023/01/12 00:37:19;;;;;;;24.07;15.80;;;4.40;99.90;;;4.20;84.27;100113.13;5125424;28;20184;-67
2023/01/12 00:39:47;;;;;;;27.13;15.27;;;4.40;99.90;;;4.18;83.87;100125.88;5134745;28;20195;-68
2023/01/12 00:45:21;;;;;;;24.30;15.47;;;4.40;99.90;;;4.20;83.83;100121.69;5129335;28;20211;-68
2023/01/12 00:47:50;;;;;;;24.73;15.93;;;4.50;99.90;;;4.21;83.77;100125.09;5132431;28;20182;-66
2023/01/12 00:50:18;;;;;;;24.07;15.30;;;4.50;99.90;;;4.20;84.16;100124.22;5128946;28;20279;-67
2023/01/12 00:52:48;;;;;;;24.40;15.70;;;4.50;99.90;;;4.21;83.98;100120.84;5128316;28;20204;-67
2023/01/12 00:55:17;;;;;;;23.87;14.97;;;4.50;99.90;;;4.23;84.40;100121.69;5131297;28;20203;-67
2023/01/12 00:57:45;;;;;;;24.50;15.13;;;4.50;99.90;;;4.27;84.76;100120.06;5130795;28;20225;-68
2023/01/12 01:00:16;;;;;;;22.77;14.23;;;4.50;99.90;;;4.28;84.68;100124.34;5131739;28;20207;-68
2023/01/12 01:02:44;;;;;;;25.43;15.00;;;4.50;99.90;;;4.30;84.71;100126.06;5134584;28;20504;-67
2023/01/12 01:05:12;;;;;;;22.77;14.77;;;4.60;99.90;;;4.31;84.55;100115.03;5130522;28;20208;-67
2023/01/12 01:07:41;;;;;;;23.90;14.93;;;4.60;99.90;;;4.33;84.48;100115.91;5132110;28;20237;-68
2023/01/12 01:10:11;;;;;;;22.80;13.87;;;4.60;99.90;;;4.34;84.50;100117.66;5133092;28;20255;-67
2023/01/12 01:12:40;;;;;;;26.17;13.90;;;4.60;99.90;;;4.35;84.40;100114.25;5134707;28;20221;-67
2023/01/12 01:15:10;;;;;;;24.00;15.23;;;4.60;99.90;;;4.40;84.61;100123.66;5130240;28;20262;-69
2023/01/12 01:17:38;;;;;;;21.20;14.50;;;4.60;99.90;;;4.41;84.73;100120.25;5127644;28;20261;-66
2023/01/12 01:20:07;;;;;;;24.40;14.00;;;4.60;99.90;;;4.41;84.62;100107.50;5130879;28;20184;-66
2023/01/12 01:22:36;;;;;;;22.80;13.97;;;4.60;99.90;;;4.46;84.79;100118.66;5131680;28;20657;-68
2023/01/12 01:25:05;;;;;;;22.57;14.27;;;4.70;99.90;;;4.47;84.24;100117.81;5132557;28;20268;-67
2023/01/12 01:27:35;;;;;;;20.50;14.10;;;4.70;99.90;;;4.47;84.08;100118.66;5131490;28;20277;-68
2023/01/12 01:30:04;;;;;;;23.80;15.13;;;4.70;99.90;;;4.48;84.42;100117.81;5132254;28;20219;-67
2023/01/12 01:32:33;;;;;;;23.10;14.97;;;4.70;99.90;;;4.53;84.71;100118.75;5133068;28;20227;-66
2023/01/12 01:35:01;;;;;;;20.17;13.83;;;4.70;99.90;;;4.57;84.06;100112.00;5130665;28;20200;-67
2023/01/12 01:37:30;;;;;;;20.00;13.73;;;4.80;99.90;;;4.60;84.41;100120.56;5132131;28;21374;-67
2023/01/12 01:39:58;;;;;;;22.87;14.20;;;4.80;99.90;;;4.65;84.55;100110.41;5130428;28;20180;-67
2023/01/12 01:42:29;;;;;;;21.93;14.47;;;4.80;99.90;;;4.66;84.07;100114.66;5131894;28;20204;-69
2023/01/12 01:45:01;;;;;;;22.47;14.47;;;4.80;99.90;;;4.68;83.54;100107.91;5130764;28;20225;-68
2023/01/12 01:47:36;;;;;;;23.53;14.60;;;4.90;99.90;;;4.69;83.94;100106.22;5131139;28;20419;-68
2023/01/12 01:50:16;;;;;;;21.93;13.77;;;4.80;99.90;;;4.68;84.20;100110.47;5131501;28;20222;-69
2023/01/12 01:52:49;;;;;;;20.80;13.30;;;4.80;99.90;;;4.68;84.33;100110.47;5124672;28;20531;-69
2023/01/12 01:55:23;;;;;;;24.43;14.47;;;4.80;99.90;;;4.66;84.09;100112.13;5129032;28;20192;-67
2023/01/12 01:57:58;;;;;;;23.00;14.80;;;4.80;99.90;;;4.68;84.31;100107.06;5131301;28;20210;-68
2023/01/12 02:00:29;;;;;;;21.90;14.20;;;4.90;99.90;;;4.69;84.60;100113.88;5129007;28;20219;-69
2023/01/12 02:02:59;;;;;;;21.73;14.40;;;4.90;99.90;;;4.67;84.49;100111.28;5129051;28;20260;-69
2023/01/12 02:05:28;;;;;;;23.63;14.57;;;4.90;99.90;;;4.68;84.80;100117.25;5132200;28;20214;-68
2023/01/12 02:08:06;;;;;;;21.90;14.73;;;4.90;99.90;;;4.70;84.83;100118.13;5131167;28;20196;-66
2023/01/12 02:10:36;;;;;;;22.77;14.13;;;4.90;99.90;;;4.71;84.43;100115.56;5130790;28;20226;-73
2023/01/12 02:19:19;;;;;;;20.23;13.60;;;4.90;99.90;;;4.77;84.34;100115.66;5131662;28;20200;-68
2023/01/12 02:22:33;;;;;;;20.27;14.43;;;4.90;99.90;;;4.79;84.75;100114.00;5122385;28;20227;-68
2023/01/12 02:25:50;;;;;;;18.77;13.50;;;5.00;99.90;;;4.80;84.64;100125.06;5120421;28;20249;-66
2023/01/12 02:28:54;;;;;;;22.70;13.90;;;5.00;99.90;;;4.83;84.81;100122.56;5093730;28;20241;-69
2023/01/12 02:31:43;;;;;;;19.63;13.33;;;5.00;99.90;;;4.87;84.65;100133.66;5120562;28;20241;-68
2023/01/12 02:34:27;;;;;;;22.47;14.10;;;5.10;99.90;;;4.90;84.87;100133.69;5124806;28;20192;-68
2023/01/12 02:37:10;;;;;;;20.67;13.80;;;5.10;99.90;;;4.92;85.02;100116.69;5129660;28;20191;-66
2023/01/12 02:39:43;;;;;;;20.33;12.97;;;5.10;99.90;;;4.95;84.72;100120.16;5132072;28;20172;-68
2023/01/12 02:42:42;;;;;;;20.63;13.03;;;5.10;99.90;;;4.98;84.83;100122.75;5130834;28;20237;-67
2023/01/12 02:45:24;;;;;;;20.97;14.13;;;5.20;99.90;;;5.02;85.02;100124.50;5129475;28;20200;-68
2023/01/12 02:47:59;;;;;;;20.73;13.37;;;5.20;99.90;;;5.03;84.90;100126.22;5129571;28;20551;-66
2023/01/12 02:50:36;;;;;;;22.23;14.53;;;5.20;99.90;;;5.07;84.96;100132.22;5124371;28;20211;-68
2023/01/12 02:53:13;;;;;;;21.03;14.47;;;5.20;99.90;;;5.10;84.32;100132.25;5130502;28;20221;-68
2023/01/12 02:55:42;;;;;;;22.23;13.93;;;5.30;99.90;;;5.12;84.62;100130.59;5130164;28;20207;-67
2023/01/12 02:58:14;;;;;;;19.40;13.43;;;5.30;99.90;;;5.14;84.24;100136.56;5129155;28;20212;-69
2023/01/12 03:00:45;;;;;;;20.07;13.73;;;5.30;99.90;;;5.15;84.67;100138.25;5128815;28;20220;-67
2023/01/12 03:03:16;;;;;;;22.13;13.40;;;5.30;99.90;;;5.19;84.23;100139.16;5130434;28;20219;-68
2023/01/12 03:05:44;;;;;;;19.60;13.17;;;5.30;99.90;;;5.19;84.63;100142.59;5131183;28;20255;-68
2023/01/12 03:08:19;;;;;;;21.53;13.70;;;5.40;99.90;;;5.18;84.35;100135.75;5130692;28;20208;-67
2023/01/12 03:11:12;;;;;;;20.73;14.33;;;5.40;99.90;;;5.22;84.52;100142.59;5122385;28;20222;-68
2023/01/12 03:13:46;;;;;;;19.50;13.00;;;5.40;99.90;;;5.24;84.54;100145.19;5131004;28;20188;-68
2023/01/12 03:16:20;;;;;;;19.60;12.97;;;5.40;99.90;;;5.27;84.43;100151.19;5131564;28;20234;-67
2023/01/12 03:18:58;;;;;;;22.33;13.43;;;5.50;99.90;;;5.28;84.36;100157.16;5135442;28;20188;-68
2023/01/12 03:21:33;;;;;;;24.37;13.40;;;5.40;99.90;;;5.28;84.60;100160.56;5136520;28;20195;-68
2023/01/12 03:24:06;;;;;;;18.43;12.93;;;5.50;99.90;;;5.30;84.41;100166.56;5123187;28;20255;-69
2023/01/12 03:26:39;;;;;;;20.43;13.53;;;5.50;99.90;;;5.31;84.42;100160.59;5132036;28;20199;-70
2023/01/12 03:29:15;;;;;;;19.33;12.77;;;5.50;99.90;;;5.32;84.54;100158.91;5134994;28;20180;-69
2023/01/12 03:31:44;;;;;;;19.73;13.63;;;5.50;99.90;;;5.36;84.56;100164.91;5133817;28;20227;-67
2023/01/12 03:34:14;;;;;;;18.33;12.87;;;5.50;99.90;;;5.37;84.68;100161.50;5132769;28;20262;-68
2023/01/12 03:36:53;;;;;;;19.77;13.07;;;5.50;99.90;;;5.40;84.68;100157.28;5135166;28;20688;-67
2023/01/12 03:39:28;;;;;;;19.13;13.13;;;5.60;99.90;;;5.41;84.62;100153.03;5129225;28;20192;-68
2023/01/12 03:42:04;;;;;;;20.93;13.17;;;5.60;99.90;;;5.45;85.01;100155.66;5134851;28;20195;-69
2023/01/12 03:44:41;;;;;;;20.93;12.70;;;5.60;99.90;;;5.47;84.43;100158.22;5128111;28;20609;-70
2023/01/12 03:47:16;;;;;;;20.13;12.90;;;5.60;99.90;;;5.47;84.72;100153.97;5121989;28;20222;-68
2023/01/12 03:49:52;;;;;;;19.07;12.70;;;5.70;99.90;;;5.51;84.59;100153.16;5133222;28;20280;-69
2023/01/12 03:52:22;;;;;;;20.60;13.03;;;5.70;99.90;;;5.52;84.70;100157.44;5132139;28;20684;-68
2023/01/12 03:54:55;;;;;;;20.07;12.53;;;5.70;99.90;;;5.55;84.64;100156.59;5135225;28;20199;-68
2023/01/12 03:57:24;;;;;;;18.00;13.00;;;5.70;99.90;;;5.60;84.88;100160.06;5133862;28;20203;-66
2023/01/12 03:59:55;;;;;;;19.20;12.10;;;5.80;99.90;;;5.60;84.74;100154.06;5132845;28;20311;-68
2023/01/12 04:02:23;;;;;;;23.37;12.97;;;5.80;99.90;;;5.62;84.69;100153.25;5132428;28;20272;-69
2023/01/12 04:04:53;;;;;;;19.90;12.70;;;5.80;99.90;;;5.63;84.74;100160.09;5135927;28;20440;-68
2023/01/12 04:07:22;;;;;;;21.20;12.40;;;5.80;99.90;;;5.67;84.54;100161.84;5135294;28;20200;-68
2023/01/12 04:09:50;;;;;;;20.07;13.33;;;5.90;99.90;;;5.70;85.18;100156.75;5131114;28;20246;-67
2023/01/12 04:12:19;;;;;;;19.87;13.10;;;5.80;99.90;;;5.71;84.87;100161.03;5132143;28;20259;-67
2023/01/12 04:14:48;;;;;;;17.70;13.10;;;5.90;99.90;;;5.71;85.00;100161.03;5128724;28;20201;-69
2023/01/12 04:17:17;;;;;;;19.03;12.43;;;5.90;99.90;;;5.74;85.08;100165.31;5130523;27;20614;-68
2023/01/12 04:19:47;;;;;;;16.93;12.20;;;5.90;99.90;;;5.74;85.05;100168.75;5133988;28;20204;-69
2023/01/12 04:25:04;;;;;;;19.23;12.43;;;5.90;99.90;;;5.78;84.78;100160.25;5132257;28;20542;-67
2023/01/12 04:27:36;;;;;;;19.50;12.60;;;6.00;99.90;;;5.82;84.85;100168.81;5131465;28;20189;-68
2023/01/12 04:30:06;;;;;;;18.47;12.83;;;6.00;99.90;;;5.84;85.42;100179.03;5132993;28;20213;-67
2023/01/12 04:32:34;;;;;;;19.63;13.20;;;6.00;99.90;;;5.86;85.69;100177.38;5131302;28;20208;-69
2023/01/12 04:35:03;;;;;;;21.07;13.00;;;6.00;99.90;;;5.87;85.70;100173.97;5134085;28;20253;-68
2023/01/12 04:37:33;;;;;;;16.30;12.47;;;6.00;99.90;;;5.89;85.81;100178.25;5132131;28;20200;-66
2023/01/12 04:40:02;;;;;;;21.60;13.53;;;6.10;99.90;;;5.92;85.41;100175.75;5132906;28;20200;-66
2023/01/12 04:45:17;;;;;;;16.20;12.07;;;6.10;99.90;;;5.96;85.76;100172.38;5120474;28;20194;-67
2023/01/12 04:47:45;;;;;;;19.43;13.57;;;6.20;99.90;;;5.99;85.86;100169.00;5131670;28;20226;-67
2023/01/12 04:50:15;;;;;;;22.20;14.73;;;6.20;99.90;;;6.00;85.95;100181.81;5131002;27;20271;-66
2023/01/12 04:52:45;;;;;;;19.57;13.73;;;6.20;99.90;;;6.02;85.74;100182.66;5131437;28;20223;-67
2023/01/12 04:55:13;;;;;;;19.37;13.23;;;6.30;99.90;;;6.05;86.04;100179.28;5133469;28;20245;-70
2023/01/12 04:57:41;;;;;;;21.53;14.97;;;6.30;99.90;;;6.05;85.74;100174.16;5130523;28;20237;-68
2023/01/12 05:00:11;;;;;;;22.90;15.43;;;6.30;99.90;;;6.10;86.41;100187.84;5127850;28;20322;-68
2023/01/12 05:02:40;;;;;;;25.43;15.97;;;6.30;99.90;;;6.13;86.00;100184.47;5132890;28;20211;-66
2023/01/12 05:05:09;;;;;;;19.93;15.30;;;6.30;99.90;;;6.14;85.99;100184.47;5132250;28;20188;-68
2023/01/12 05:10:21;;;;;;;19.10;14.40;;;6.40;99.90;;;6.17;86.24;100179.38;5132745;28;20230;-68
2023/01/12 05:10:26;;;;;;;20.03;14.20;;;6.40;99.90;;;6.18;85.91;100183.66;5129147;28;20208;-68
2023/01/12 05:12:54;;;;;;;18.57;13.13;;;6.40;99.90;;;6.19;86.42;100182.81;5122928;28;20271;-67
2023/01/12 05:15:23;;;;;;;20.10;13.47;;;6.40;99.90;;;6.20;86.14;100179.41;5121713;28;20200;-68
2023/01/12 05:17:53;;;;;;;19.90;13.37;;;6.40;99.90;;;6.21;85.81;100177.72;5132882;28;20235;-68
2023/01/12 05:20:21;;;;;;;19.80;14.03;;;6.40;99.90;;;6.22;85.87;100177.75;5129267;28;20237;-65
2023/01/12 05:22:51;;;;;;;17.40;12.80;;;6.50;99.90;;;6.25;86.10;100187.97;5129197;28;20180;-66
2023/01/12 05:25:19;;;;;;;19.47;13.40;;;6.50;99.90;;;6.27;86.08;100191.41;5131161;28;20229;-66
2023/01/12 05:27:49;;;;;;;18.53;13.40;;;6.50;99.90;;;6.29;86.17;100182.03;5129979;28;20217;-67
2023/01/12 05:30:19;;;;;;;18.27;13.53;;;6.50;99.90;;;6.30;86.08;100180.34;5122732;28;20243;-69
2023/01/12 05:32:47;;;;;;;17.57;12.77;;;6.50;99.90;;;6.31;85.58;100173.53;5120570;28;20200;-68
2023/01/12 05:35:16;;;;;;;19.10;13.83;;;6.50;99.90;;;6.33;85.40;100179.50;5132998;28;20204;-68
2023/01/12 05:37:44;;;;;;;18.93;13.90;;;6.60;99.90;;;6.33;85.31;100177.78;5133876;28;20200;-68
2023/01/12 05:40:14;;;;;;;18.67;13.03;;;6.60;99.90;;;6.33;85.68;100184.63;5129087;28;20211;-69
2023/01/12 05:45:30;;;;;;;16.80;12.03;;;6.60;99.90;;;6.37;85.88;100187.25;5128374;28;20192;-68
2023/01/12 05:48:00;;;;;;;18.63;12.03;;;6.60;99.90;;;6.36;85.86;100193.19;5131419;28;20245;-69
2023/01/12 05:50:29;;;;;;;18.63;13.13;;;6.60;99.90;;;6.39;85.43;100195.75;5128473;28;20207;-65
2023/01/12 05:52:57;;;;;;;19.27;13.60;;;6.60;99.90;;;6.39;86.05;100194.91;5117270;28;20229;-67
2023/01/12 05:55:25;;;;;;;17.47;13.60;;;6.60;99.90;;;6.40;86.16;100199.19;5120247;28;20298;-67
2023/01/12 05:57:54;;;;;;;18.37;14.20;;;6.60;99.90;;;6.42;85.49;100210.28;5125205;28;20241;-65
2023/01/12 06:00:23;;;;;;;18.60;13.47;;;6.60;99.90;;;6.45;85.63;100210.31;5121845;28;20220;-68
2023/01/12 06:02:53;;;;;;;20.73;14.60;;;6.70;99.90;;;6.46;85.71;100206.91;5124365;28;20203;-69
2023/01/12 06:05:21;;;;;;;19.13;13.90;;;6.70;99.90;;;6.47;85.67;100206.91;5121301;28;20203;-67
2023/01/12 06:07:50;;;;;;;23.37;14.53;;;6.70;99.90;;;6.50;85.23;100208.66;5122695;28;20207;-68
2023/01/12 06:10:19;;;;;;;17.13;13.17;;;6.70;99.90;;;6.51;85.32;100205.22;5118375;28;20739;-69
2023/01/12 06:15:36;;;;;;;18.87;13.67;;;6.70;99.90;;;6.54;85.57;100195.88;5109541;28;20200;-67
2023/01/12 06:18:06;;;;;;;19.67;14.43;;;6.80;99.90;;;6.55;85.73;100199.28;5109606;28;20579;-67
2023/01/12 06:20:35;;;;;;;19.73;14.10;;;6.80;99.90;;;6.57;85.57;100205.28;5130438;28;20183;-70
2023/01/12 06:23:04;;;;;;;21.33;15.70;;;6.80;99.90;;;6.57;85.50;100210.41;5122380;28;20600;-68
2023/01/12 06:25:33;;;;;;;22.10;15.33;;;6.80;99.90;;;6.58;85.20;100222.34;5111114;28;20225;-68
2023/01/12 06:28:02;;;;;;;23.47;18.13;;;6.80;99.90;;;6.60;85.93;100214.69;5104899;28;20308;-68
2023/01/12 06:30:30;;;;;;;22.97;17.23;;;6.80;99.90;;;6.62;85.99;100220.69;5114031;28;20204;-69
2023/01/12 06:33:02;;;;;;;26.57;17.77;;;6.80;99.90;;;6.63;85.41;100224.94;5111189;28;20219;-68
2023/01/12 06:35:32;;;;;;;19.20;14.40;;;6.90;99.90;;;6.64;85.48;100227.53;5111018;28;20262;-67
2023/01/12 06:38:00;;;;;;;18.57;13.57;;;6.90;99.90;;;6.64;85.44;100226.69;5104464;28;20200;-70
2023/01/12 06:40:29;;;;;;;22.80;15.17;;;6.90;99.90;;;6.65;85.56;100226.69;5101829;28;20209;-68
2023/01/12 06:42:57;;;;;;;21.10;15.20;;;6.90;99.90;;;6.68;85.19;100233.53;5115373;28;20235;-68
2023/01/12 06:45:26;;;;;;;23.57;15.90;;;6.90;99.90;;;6.67;85.39;100225.00;5115722;28;20207;-69
2023/01/12 06:47:56;;;;;;;23.77;17.07;;;6.90;99.90;;;6.68;85.57;100224.13;5107326;28;20205;-69
2023/01/12 06:50:24;;;;;;;25.63;16.07;;;6.90;99.90;;;6.68;85.56;100213.06;5110415;28;20200;-69
2023/01/12 06:52:54;;;;;;;21.67;15.00;;;6.90;99.90;;;6.74;85.73;100231.88;5113165;28;20220;-69
2023/01/12 06:55:23;;;;;;;23.23;15.70;;;6.90;99.90;;;6.76;85.28;100219.94;5116636;28;20204;-69
2023/01/12 06:57:52;;;;;;;22.03;15.13;;;7.00;99.90;;;6.78;85.14;100218.25;5115538;28;20556;-69
2023/01/12 07:00:21;;;;;;;23.60;15.53;;;7.00;99.90;;;6.81;86.04;100221.66;5112951;28;20219;-70
2023/01/12 07:02:51;;;;;;;21.63;16.03;;;7.00;99.90;;;6.82;85.47;100231.06;5104557;28;20193;-69
2023/01/12 07:05:19;;;;;;;21.83;14.93;;;7.10;99.90;;;6.83;85.78;100231.06;5113375;28;20256;-67
2023/01/12 07:07:48;;;;;;;22.73;14.77;;;7.00;99.90;;;6.85;85.43;100236.19;5112372;28;20204;-68
2023/01/12 07:10:18;;;;;;;21.70;14.20;;;7.10;99.90;;;6.85;85.47;100241.31;5112907;28;20552;-67
2023/01/12 07:12:46;;;;;;;19.37;13.63;;;7.10;99.90;;;6.85;85.26;100244.75;5116217;28;20228;-70
2023/01/12 07:15:15;;;;;;;22.60;14.10;;;7.00;99.90;;;6.85;85.39;100246.44;5115331;28;20212;-68
2023/01/12 07:17:43;;;;;;;18.43;14.20;;;7.10;99.90;;;6.85;85.01;100251.56;5113564;28;20542;-70
2023/01/12 07:20:12;;;;;;;23.60;15.63;;;7.10;99.90;;;6.89;85.40;100253.31;5073146;28;20234;-69
2023/01/12 07:22:41;;;;;;;24.47;15.03;;;7.10;99.90;;;6.88;84.93;100257.56;5123333;28;20203;-68
2023/01/12 07:25:10;;;;;;;20.97;14.10;;;7.10;99.90;;;6.90;85.48;100266.13;5123431;28;20297;-68
2023/01/12 07:27:47;;;;;;;18.27;13.37;;;7.10;99.90;;;6.89;84.34;100259.28;5104171;28;20200;-70
2023/01/12 07:30:16;;;;;;;22.17;14.03;;;7.10;99.90;;;6.92;85.02;100264.44;5121284;28;20229;-69
2023/01/12 07:32:44;;;;;;;20.17;13.50;;;7.10;99.90;;;6.93;84.74;100261.03;5118016;28;20268;-69
2023/01/12 07:35:13;;;;;;;18.03;13.13;;;7.10;99.90;;;6.95;84.02;100263.59;5114431;28;20203;-69
2023/01/12 07:37:48;;;;;;;18.30;13.47;;;7.10;99.90;;;6.96;84.58;100263.63;5118446;28;20227;-68
2023/01/12 07:40:17;;;;;;;19.20;13.70;;;7.20;99.90;;;6.99;84.41;100261.03;5120349;28;20204;-68
2023/01/12 07:42:47;;;;;;;17.70;13.27;;;7.20;99.90;;;7.03;84.71;100261.94;5125501;28;20207;-69
2023/01/12 07:45:16;;;;;;;19.40;13.93;;;7.20;99.90;;;7.04;84.08;100263.66;5122830;28;20196;-67
2023/01/12 07:47:53;;;;;;;20.60;13.90;;;7.20;99.90;;;7.07;84.50;100273.94;5125819;28;20235;-69
2023/01/12 07:50:22;;;;;;;17.60;13.27;;;7.30;99.90;;;7.08;84.67;100265.38;5120518;28;20200;-69
2023/01/12 07:52:50;;;;;;;21.10;14.17;;;7.30;99.90;;;7.07;84.31;100263.69;5115228;28;20565;-66
2023/01/12 07:55:19;;;;;;;22.37;13.87;;;7.30;99.90;;;7.11;84.13;100269.69;5114648;28;20200;-69
2023/01/12 07:57:56;;;;;;;18.73;13.17;;;7.30;99.90;;;7.11;83.63;100273.09;5103997;28;20332;-69
2023/01/12 08:00:27;;;;;;;24.10;15.27;;;7.40;99.90;;;7.15;84.16;100274.84;5116478;28;20250;-72
2023/01/12 08:03:05;;;;;;;17.37;12.63;;;7.30;99.90;;;7.17;83.61;100285.06;5123911;28;20226;-74
2023/01/12 08:05:35;;;;;;;18.97;13.43;;;7.40;99.90;;;7.19;83.84;100294.50;5113101;28;20217;-72
2023/01/12 08:08:05;;;;;;;19.73;13.23;;;7.40;99.90;;;7.20;83.20;100296.22;5121835;28;20317;-71
2023/01/12 08:10:35;;;;;;;21.80;14.50;;;7.40;99.90;;;7.23;82.97;100297.94;5128755;28;20200;-74
2023/01/12 08:13:05;;;;;;;22.63;14.50;;;7.40;99.90;;;7.20;82.96;100291.09;5129481;28;20218;-72
2023/01/12 08:15:39;;;;;;;19.37;14.00;;;7.40;99.90;;;7.22;83.09;100297.09;5129607;28;20214;-72
2023/01/12 08:18:14;;;;;;;22.80;13.73;;;7.40;99.90;;;7.22;83.28;100297.09;5127478;28;20230;-70
2023/01/12 08:20:44;;;;;;;21.77;14.03;;;7.40;99.90;;;7.23;82.95;100303.91;5117984;28;20184;-69
2023/01/12 08:23:17;;;;;;;18.83;12.77;;;7.40;99.90;;;7.23;82.92;100298.78;5077109;28;20235;-69
2023/01/12 08:25:53;;;;;;;22.93;13.87;;;7.50;99.90;;;7.22;83.26;100299.66;5129515;28;20194;-68
2023/01/12 08:28:27;;;;;;;19.30;14.00;;;7.50;99.90;;;7.25;82.91;100297.13;5122509;28;20215;-68
2023/01/12 08:30:56;;;;;;;20.93;13.43;;;7.40;99.90;;;7.24;82.42;100290.25;5122915;28;20223;-69
2023/01/12 08:33:25;;;;;;;21.47;14.47;;;7.40;99.90;;;7.26;83.08;100301.38;5120600;28;20257;-68
2023/01/12 08:35:54;;;;;;;21.90;13.80;;;7.40;99.90;;;7.27;82.63;100299.66;5114870;28;20250;-69
2023/01/12 08:38:23;;;;;;;19.37;13.60;;;7.40;99.90;;;7.26;82.47;100298.81;5128407;28;20196;-69
2023/01/12 08:46:25;;;;;;;18.63;13.03;;;7.50;99.90;;;7.34;82.04;100309.09;5014627;28;20207;-69
2023/01/12 08:48:53;;;;;;;17.00;12.43;;;7.50;99.90;;;7.37;82.25;100314.25;5022466;28;20241;-69
2023/01/12 08:51:22;;;;;;;19.27;13.27;;;7.50;99.90;;;7.46;82.02;100310.88;5012764;28;20219;-69
2023/01/12 08:53:50;;;;;;;17.60;12.93;;;7.70;99.90;;;7.64;82.06;100315.25;5016698;28;20227;-70
2023/01/12 08:56:19;;;;;;;19.43;12.13;;;7.80;99.90;;;8.12;82.45;100314.56;5027484;28;20230;-70
2023/01/12 08:58:49;;;;;;;22.67;12.57;;;8.40;99.90;;;8.65;80.60;100318.09;5026235;28;20233;-69
2023/01/12 09:01:18;;;;;;;19.60;11.50;;;8.90;99.90;;;9.56;82.99;100306.84;5027575;28;20276;-69
2023/01/12 09:03:48;;;;;;;19.17;11.27;;;9.90;99.90;;;10.69;77.46;100308.00;5028693;28;20208;-70
2023/01/12 09:06:19;;;;;;;19.73;10.67;;;10.90;99.90;;;12.10;70.13;100309.09;5019909;28;20245;-71
2023/01/12 09:08:48;;;;;;;14.93;9.83;;;12.20;99.90;;;13.01;66.46;100301.66;5024746;28;20496;-69
2023/01/12 09:11:16;;;;;;;13.30;8.80;;;13.10;99.90;;;13.74;62.63;100303.78;5023354;28;20207;-70
2023/01/12 09:13:45;;;;;;;14.67;9.77;;;13.90;99.90;;;14.09;60.62;100286.59;5022524;28;20223;-70
2023/01/12 09:16:18;;;;;;;15.20;9.63;;;14.20;99.90;;;14.40;58.48;100279.84;5025120;28;20239;-68
2023/01/12 09:18:47;;;;;;;11.83;8.47;;;14.50;99.90;;;15.57;57.58;100284.63;5017991;28;20222;-72
2023/01/12 09:21:19;;;;;;;11.20;8.33;;;15.80;99.90;;;17.49;52.02;100272.44;5020480;28;20215;-70
2023/01/12 09:23:48;;;;;;;14.47;8.53;;;17.70;99.90;;;17.70;47.33;100268.16;5018076;28;20203;-70
2023/01/12 09:26:20;;;;;;;11.70;8.30;;;17.50;99.90;;;16.86;47.34;100264.22;5014929;28;20215;-69
2023/01/12 09:28:50;;;;;;;10.20;7.87;;;16.80;99.90;;;16.01;48.84;100261.72;5015001;28;20671;-70
2023/01/12 09:31:22;;;;;;;11.43;8.40;;;16.10;99.90;;;15.44;50.65;100264.22;5018670;28;20221;-68
2023/01/12 09:33:51;;;;;;;14.80;8.73;;;15.60;99.90;;;15.93;52.71;100259.38;5019447;28;20201;-69
2023/01/12 09:36:23;;;;;;;12.40;8.73;;;16.20;99.90;;;17.22;50.18;100258.63;5016796;28;20230;-70
2023/01/12 09:38:52;;;;;;;13.55;7.90;;;17.50;99.90;;;19.15;45.28;100245.00;5014271;28;20608;-69
2023/01/12 09:47:17;;;;;;;10.10;7.20;;;21.30;95.00;;;22.18;37.43;100233.34;5010394;28;20237;-69
2023/01/12 09:49:52;;;;;;;9.23;7.03;;;22.20;91.30;;;22.99;35.40;100238.28;5010410;28;20192;-69
2023/01/12 09:52:33;;;;;;;9.10;6.32;;;23.00;83.50;;;23.79;33.43;100229.00;5013160;28;20235;-69
2023/01/12 09:55:01;;;;;;;10.23;6.70;;;24.00;80.20;;;24.68;31.88;100225.84;5013033;28;20222;-70
2023/01/12 09:58:14;;;;;;;8.18;6.28;;;24.80;74.60;;;25.99;29.06;100213.13;5009040;28;20656;-70
2023/01/12 10:00:43;;;;;;;10.73;5.95;;;25.80;70.30;;;26.89;28.27;100207.34;5014757;28;20760;-69
2023/01/12 10:03:24;;;;;;;8.20;5.80;;;26.60;67.10;;;27.73;26.59;100210.44;5061500;28;20207;-69
2023/01/12 10:05:57;;;;;;;8.07;5.72;;;27.40;62.60;;;28.55;25.38;100198.38;5103994;28;20188;-69
2023/01/12 10:08:35;;;;;;;7.25;5.53;;;28.20;58.60;;;29.22;25.19;100196.25;5108241;28;20242;-70
2023/01/12 10:11:15;;;;;;;8.63;5.72;;;28.70;58.90;;;30.01;24.14;100188.31;5113138;28;20207;-69
2023/01/12 10:14:34;;;;;;;7.60;5.55;;;29.70;56.70;;;30.73;22.22;100189.69;5113382;28;20211;-70
2023/01/12 10:17:29;;;;;;;6.65;5.22;;;30.40;53.40;;;31.29;21.53;100181.66;5047008;28;20241;-71
2023/01/12 10:20:23;;;;;;;7.97;5.25;;;31.00;52.00;;;31.81;21.03;100182.91;5109251;28;20248;-70
2023/01/12 10:22:56;;;;;;;6.50;5.32;;;31.50;51.00;;;32.43;20.56;100194.53;5127546;28;20199;-69
2023/01/12 10:25:36;;;;;;;6.55;4.68;;;31.90;49.60;;;33.00;19.36;100184.25;5135106;28;20333;-69
2023/01/12 10:28:14;;;;;;;8.18;4.88;;;32.30;48.40;;;33.32;19.23;100182.69;5132881;28;20225;-69
2023/01/12 10:30:43;;;;;;;6.47;4.65;;;32.70;47.20;;;33.54;18.47;100182.13;5130350;28;20199;-70
2023/01/12 10:33:18;;;;;;;6.00;4.70;;;32.90;46.70;;;33.99;17.96;100183.59;5131684;28;20206;-69
2023/01/12 10:36:02;;;;;;;8.82;4.88;;;33.30;46.60;;;34.41;17.65;100174.53;5131342;28;20215;-69
2023/01/12 10:38:33;;;;;;;6.25;4.50;;;33.70;45.00;;;34.75;17.04;100165.47;5119098;28;20188;-69
2023/01/12 10:41:06;;;;;;;6.95;5.10;;;33.90;43.70;;;34.68;17.49;100167.16;5131640;28;20212;-70
2023/01/12 10:43:35;;;;;;;8.38;4.30;;;33.90;44.20;;;34.89;16.69;100171.97;5127975;28;20234;-70
2023/01/12 10:46:15;;;;;;;10.68;4.68;;;33.90;43.40;;;35.45;16.84;100162.84;5121656;28;20200;-69
2023/01/12 10:48:46;;;;;;;6.63;4.38;;;34.50;43.80;;;35.80;15.32;100160.66;5127499;28;20198;-69
2023/01/12 10:51:28;;;;;;;5.95;4.20;;;34.50;41.30;;;35.55;16.29;100158.16;5122053;28;20272;-71
2023/01/12 10:54:01;;;;;;;8.65;4.47;;;34.40;42.70;;;35.64;15.96;100148.19;5112855;28;20715;-69
2023/01/12 10:56:35;;;;;;;6.07;4.32;;;34.50;42.20;;;35.99;15.85;100145.97;5115802;28;20217;-70
2023/01/12 10:59:15;;;;;;;7.25;4.63;;;35.10;42.00;;;36.07;15.68;100147.75;5127197;28;20218;-69
2023/01/12 11:01:47;;;;;;;7.03;4.45;;;35.20;41.30;;;35.75;15.77;100147.78;5118514;28;20230;-70
2023/01/12 11:04:21;;;;;;;7.70;5.07;;;34.90;40.90;;;35.83;15.65;100140.69;5123646;28;20196;-70
2023/01/12 11:07:01;;;;;;;8.00;4.50;;;34.70;41.20;;;36.04;15.01;100136.34;5121909;28;20195;-70